Time;durP1;ratioP1;P1;durP2;ratioP2;P2;SDS_P1;SDS_P2;PMS_P1;PMS_P2;Temp;Humidity;BMP_temperature;BMP_pressure;BME280_temperature;BME280_humidity;BME280_pressure;Samples;Min_cycle;Max_cycle;Signal;HPM_P1;HPM_P2
2023/02/19 00:01:26;;;;;;;4.30;2.53;;;5.60;99.90;;;;;;5017324;28;20924;-70
2023/02/19 00:03:58;;;;;;;2.40;1.87;;;5.60;99.90;;;;;;5018337;28;20948;-70
2023/02/19 00:06:25;;;;;;;2.30;2.03;;;5.60;99.90;;;;;;5022824;28;20422;-69
2023/02/19 00:08:51;;;;;;;7.37;2.50;;;5.60;99.90;;;;;;5007095;28;20458;-70
2023/02/19 00:11:19;;;;;;;3.00;2.10;;;5.60;99.90;;;;;;5026845;28;20485;-69
2023/02/19 00:13:48;;;;;;;3.57;2.20;;;5.60;99.90;;;;;;5018328;28;20601;-69
2023/02/19 00:16:23;;;;;;;1.90;1.80;;;5.60;99.90;;;;;;5018652;28;20786;-70
2023/02/19 00:18:49;;;;;;;2.27;1.83;;;5.50;99.90;;;;;;5027115;28;20836;-69
2023/02/19 00:21:15;;;;;;;2.33;2.10;;;5.60;99.90;;;;;;5016908;28;20403;-73
2023/02/19 00:23:41;;;;;;;5.53;2.20;;;5.60;99.90;;;;;;5021902;28;20575;-71
2023/02/19 00:26:09;;;;;;;2.00;1.70;;;5.60;99.90;;;;;;5023925;28;20411;-69
2023/02/19 00:28:35;;;;;;;1.77;1.67;;;5.60;99.90;;;;;;5006326;28;20181;-71
2023/02/19 00:31:08;;;;;;;1.73;1.63;;;5.60;99.90;;;;;;5021656;28;20970;-71
2023/02/19 00:33:34;;;;;;;2.20;2.00;;;5.60;99.90;;;;;;5020661;28;20161;-72
2023/02/19 00:36:01;;;;;;;2.27;2.07;;;5.60;99.90;;;;;;5024768;28;20509;-71
2023/02/19 00:38:27;;;;;;;2.97;2.20;;;5.60;99.90;;;;;;5021191;28;20940;-71
2023/02/19 00:40:53;;;;;;;3.57;2.57;;;5.60;99.90;;;;;;5021891;28;20409;-70
2023/02/19 00:43:18;;;;;;;2.20;1.93;;;5.60;99.90;;;;;;5029800;28;20828;-70
2023/02/19 00:45:44;;;;;;;2.00;1.80;;;5.60;99.90;;;;;;5025638;28;20176;-70
2023/02/19 00:48:09;;;;;;;2.90;2.03;;;5.60;99.90;;;;;;5020887;28;20216;-70
2023/02/19 00:50:35;;;;;;;1.87;1.33;;;5.60;99.90;;;;;;5027474;28;20172;-71
2023/02/19 00:53:00;;;;;;;2.30;2.07;;;5.60;99.90;;;;;;5025186;28;20214;-71
2023/02/19 00:55:26;;;;;;;2.33;2.00;;;5.60;99.90;;;;;;5026625;28;20214;-71
2023/02/19 00:57:52;;;;;;;3.77;1.80;;;5.60;99.90;;;;;;5025259;28;20190;-71
2023/02/19 01:00:17;;;;;;;2.93;1.90;;;5.60;99.90;;;;;;5029720;28;20254;-70
2023/02/19 01:02:43;;;;;;;1.87;1.67;;;5.60;99.90;;;;;;5016548;28;20164;-71
2023/02/19 01:05:08;;;;;;;3.30;1.70;;;5.60;99.90;;;;;;5023877;28;20187;-71
2023/02/19 01:07:36;;;;;;;2.77;2.27;;;5.60;99.90;;;;;;5016466;28;20176;-69
2023/02/19 01:10:01;;;;;;;3.50;2.23;;;5.60;99.90;;;;;;5024870;28;20550;-70
2023/02/19 01:12:27;;;;;;;2.77;2.20;;;5.60;99.90;;;;;;5019679;28;20464;-70
2023/02/19 01:14:53;;;;;;;2.43;2.23;;;5.60;99.90;;;;;;5020973;28;20241;-71
2023/02/19 01:17:20;;;;;;;2.77;2.03;;;5.80;99.90;;;;;;5028726;28;20509;-72
2023/02/19 01:19:45;;;;;;;2.10;1.87;;;5.80;99.90;;;;;;5024647;28;20407;-71
2023/02/19 01:22:12;;;;;;;2.77;2.33;;;5.70;99.90;;;;;;5028662;28;20824;-71
2023/02/19 01:24:37;;;;;;;2.67;1.70;;;5.80;99.90;;;;;;5023700;28;20643;-71
2023/02/19 01:27:03;;;;;;;2.07;1.87;;;5.70;99.90;;;;;;5023726;28;20407;-71
2023/02/19 01:29:29;;;;;;;2.90;2.50;;;5.90;99.90;;;;;;5022997;28;20489;-70
2023/02/19 01:31:54;;;;;;;3.07;1.93;;;6.20;99.90;;;;;;5028573;28;20167;-71
2023/02/19 01:34:20;;;;;;;3.70;3.27;;;6.30;99.90;;;;;;5028492;28;20256;-69
2023/02/19 01:36:46;;;;;;;3.27;2.47;;;6.20;99.90;;;;;;5027843;28;20168;-70
2023/02/19 01:39:11;;;;;;;4.93;2.53;;;6.00;99.90;;;;;;5031143;28;20630;-69
2023/02/19 01:41:39;;;;;;;3.20;2.20;;;5.90;99.90;;;;;;5020335;28;20172;-72
2023/02/19 01:44:11;;;;;;;2.27;2.10;;;5.90;99.90;;;;;;5017796;28;20164;-71
2023/02/19 01:46:41;;;;;;;2.57;2.27;;;6.00;99.90;;;;;;5026251;28;20418;-70
2023/02/19 01:49:26;;;;;;;4.30;3.10;;;5.90;99.90;;;;;;5021819;28;20985;-70
2023/02/19 01:52:00;;;;;;;2.77;2.57;;;5.90;99.90;;;;;;5022464;28;20431;-71
2023/02/19 01:54:29;;;;;;;3.97;2.27;;;5.80;99.90;;;;;;5025337;28;20476;-71
2023/02/19 01:56:56;;;;;;;2.60;2.40;;;5.80;99.90;;;;;;5025038;28;20410;-70
2023/02/19 01:59:22;;;;;;;2.97;2.70;;;5.70;99.90;;;;;;5025212;28;20457;-71
2023/02/19 02:01:48;;;;;;;3.50;2.97;;;5.60;99.90;;;;;;5017008;28;20442;-70
2023/02/19 02:04:14;;;;;;;4.23;2.83;;;5.60;99.90;;;;;;5025190;28;20186;-70
2023/02/19 02:06:55;;;;;;;3.60;2.70;;;5.60;99.90;;;;;;5022444;28;20844;-70
2023/02/19 02:12:11;;;;;;;4.30;3.50;;;5.50;99.90;;;;;;5021228;28;20394;-68
2023/02/19 02:14:41;;;;;;;4.60;3.13;;;5.50;99.90;;;;;;5020118;28;20800;-69
2023/02/19 02:17:28;;;;;;;8.00;3.80;;;5.60;99.90;;;;;;5022631;28;20403;-69
2023/02/19 02:20:25;;;;;;;5.13;3.83;;;5.70;99.90;;;;;;5021425;28;20417;-70
2023/02/19 02:23:09;;;;;;;4.80;4.30;;;5.60;99.90;;;;;;5024250;28;20458;-69
2023/02/19 02:25:56;;;;;;;8.10;4.77;;;5.60;99.90;;;;;;5021920;28;20509;-68
2023/02/19 02:28:58;;;;;;;8.60;4.60;;;5.50;99.90;;;;;;5025039;28;20426;-70
2023/02/19 02:31:48;;;;;;;6.47;4.27;;;5.40;99.90;;;;;;5016068;28;20818;-69
2023/02/19 02:34:18;;;;;;;6.70;4.30;;;5.40;99.90;;;;;;5020604;28;20455;-69
2023/02/19 02:36:48;;;;;;;5.63;3.80;;;5.40;99.90;;;;;;5030967;28;20894;-69
2023/02/19 02:39:18;;;;;;;4.43;3.13;;;5.30;99.90;;;;;;5015131;28;20475;-70
2023/02/19 02:42:25;;;;;;;3.40;3.07;;;5.50;99.90;;;;;;5015230;28;20457;-69
2023/02/19 02:44:35;;;;;;;3.33;3.03;;;5.30;99.90;;;;;;5025075;28;20434;-69
2023/02/19 02:47:04;;;;;;;5.40;3.10;;;5.30;99.90;;;;;;5003279;28;20416;-69
2023/02/19 02:49:32;;;;;;;4.00;3.60;;;5.50;99.90;;;;;;5021181;28;20445;-69
2023/02/19 02:55:01;;;;;;;6.63;4.17;;;5.40;99.90;;;;;;5026179;28;20409;-67
2023/02/19 02:55:03;;;;;;;3.40;3.10;;;5.50;99.90;;;;;;5013865;28;20470;-69
2023/02/19 02:57:29;;;;;;;4.63;4.13;;;5.50;99.90;;;;;;5013376;28;20485;-68
2023/02/19 02:59:55;;;;;;;5.20;3.70;;;5.40;99.90;;;;;;5015854;28;20410;-69
2023/02/19 03:02:27;;;;;;;5.50;2.97;;;5.20;99.90;;;;;;5004182;28;20411;-69
2023/02/19 03:08:04;;;;;;;4.50;4.10;;;5.10;99.90;;;;;;5025637;28;20595;-69
2023/02/19 03:10:37;;;;;;;4.73;3.20;;;5.00;99.90;;;;;;5012744;28;20419;-69
2023/02/19 03:21:38;;;;;;;8.20;4.00;;;4.90;99.90;;;;;;5019907;28;20853;-67
2023/02/19 03:26:52;;;;;;;4.87;3.63;;;4.70;99.90;;;;;;5015405;28;20415;-68
2023/02/19 03:29:22;;;;;;;6.60;3.80;;;4.70;99.90;;;;;;5012270;28;20436;-68
2023/02/19 03:31:57;;;;;;;5.17;3.90;;;4.60;99.90;;;;;;5023654;28;21055;-68
2023/02/19 03:34:33;;;;;;;4.93;3.07;;;4.50;99.90;;;;;;5019731;28;20923;-68
2023/02/19 03:37:25;;;;;;;6.27;3.10;;;4.50;99.90;;;;;;5016768;28;20421;-68
2023/02/19 03:39:52;;;;;;;3.90;3.10;;;4.40;99.90;;;;;;5015097;28;20525;-68
2023/02/19 03:42:40;;;;;;;4.40;2.60;;;4.20;99.90;;;;;;5013390;28;20404;-68
2023/02/19 03:45:30;;;;;;;5.10;2.03;;;4.10;99.90;;;;;;4994242;28;20576;-68
2023/02/19 03:48:21;;;;;;;2.73;2.20;;;4.00;99.90;;;;;;5004648;28;20441;-68
2023/02/19 03:51:03;;;;;;;3.00;2.03;;;3.90;99.90;;;;;;5004030;28;20419;-69
2023/02/19 03:53:39;;;;;;;3.27;2.47;;;4.00;99.90;;;;;;5011980;28;20465;-69
2023/02/19 03:56:26;;;;;;;6.13;1.87;;;4.00;99.90;;;;;;4997655;28;20493;-69
2023/02/19 03:59:04;;;;;;;4.87;2.60;;;4.00;99.90;;;;;;5024458;28;20422;-69
2023/02/19 04:01:54;;;;;;;3.33;2.27;;;4.00;99.90;;;;;;5018162;28;20407;-70
2023/02/19 04:04:30;;;;;;;5.07;3.03;;;3.90;99.90;;;;;;5018827;28;20784;-70
2023/02/19 04:06:57;;;;;;;2.40;2.20;;;4.00;99.90;;;;;;5009847;28;20407;-70
2023/02/19 04:09:28;;;;;;;3.67;2.20;;;4.00;99.90;;;;;;5021652;28;20459;-69
2023/02/19 04:11:54;;;;;;;4.13;2.57;;;4.00;99.90;;;;;;5009605;28;20402;-70
2023/02/19 04:14:32;;;;;;;7.20;1.80;;;3.80;99.90;;;;;;5022060;28;20477;-68
2023/02/19 04:17:03;;;;;;;3.63;3.00;;;3.70;99.90;;;;;;5017749;28;20487;-69
2023/02/19 04:19:32;;;;;;;2.90;2.20;;;3.70;99.90;;;;;;5001846;28;20816;-69
2023/02/19 04:21:59;;;;;;;2.33;1.87;;;3.70;99.90;;;;;;4984500;28;20493;-69
2023/02/19 04:24:36;;;;;;;2.40;2.00;;;3.60;99.90;;;;;;5015170;28;20430;-68
2023/02/19 04:27:03;;;;;;;3.03;2.03;;;3.50;99.90;;;;;;4984372;28;20940;-68
2023/02/19 04:29:29;;;;;;;3.57;3.27;;;3.50;99.90;;;;;;5017426;28;20507;-68
2023/02/19 04:31:55;;;;;;;5.60;1.97;;;3.50;99.90;;;;;;5015696;28;20417;-69
2023/02/19 04:34:20;;;;;;;3.80;2.47;;;3.50;99.90;;;;;;5009027;28;20200;-68
2023/02/19 04:36:46;;;;;;;2.50;1.70;;;3.40;99.90;;;;;;5026692;28;20270;-67
2023/02/19 04:39:11;;;;;;;3.37;1.90;;;3.50;99.90;;;;;;5019162;28;20275;-68
2023/02/19 04:41:37;;;;;;;2.17;1.97;;;3.40;99.90;;;;;;5017949;28;20174;-68
2023/02/19 04:44:03;;;;;;;3.93;2.03;;;3.40;99.90;;;;;;5020705;28;20188;-68
2023/02/19 04:46:28;;;;;;;3.30;2.23;;;3.40;99.90;;;;;;5019729;28;20218;-69
2023/02/19 04:48:55;;;;;;;5.57;2.70;;;3.40;99.90;;;;;;5015409;28;20204;-68
2023/02/19 04:51:20;;;;;;;8.73;1.97;;;3.40;99.90;;;;;;5013951;28;20575;-68
2023/02/19 04:53:46;;;;;;;5.00;1.70;;;3.50;99.90;;;;;;5021779;28;20419;-68
2023/02/19 04:56:14;;;;;;;3.87;2.23;;;3.60;99.90;;;;;;5014962;28;20230;-68
2023/02/19 04:58:41;;;;;;;2.20;1.87;;;3.50;99.90;;;;;;5011998;28;20220;-68
2023/02/19 05:01:07;;;;;;;4.23;2.33;;;3.40;99.90;;;;;;5019271;28;20879;-68
2023/02/19 05:03:36;;;;;;;3.60;3.07;;;3.40;99.90;;;;;;5013301;28;20766;-69
2023/02/19 05:06:07;;;;;;;4.70;2.77;;;3.40;99.90;;;;;;5025316;28;20411;-67
2023/02/19 05:08:32;;;;;;;4.33;2.60;;;3.40;99.90;;;;;;5018888;28;20443;-68
2023/02/19 05:10:59;;;;;;;2.80;2.50;;;3.40;99.90;;;;;;5015376;28;20402;-69
2023/02/19 05:13:26;;;;;;;3.20;2.47;;;3.50;99.90;;;;;;5020466;28;20533;-68
2023/02/19 05:16:05;;;;;;;3.10;2.50;;;3.60;99.90;;;;;;5010636;28;20484;-68
2023/02/19 05:18:31;;;;;;;3.77;2.33;;;3.40;99.90;;;;;;5014944;28;20935;-67
2023/02/19 05:20:58;;;;;;;4.20;2.20;;;3.40;99.90;;;;;;5003522;28;20426;-68
2023/02/19 05:23:24;;;;;;;4.03;2.07;;;3.50;99.90;;;;;;5023726;28;20423;-68
2023/02/19 05:25:50;;;;;;;4.20;2.70;;;3.40;99.90;;;;;;5025827;28;20957;-68
2023/02/19 05:28:16;;;;;;;5.13;2.70;;;3.50;99.90;;;;;;5019057;28;20538;-69
2023/02/19 05:30:47;;;;;;;4.40;2.23;;;3.50;99.90;;;;;;5023994;28;20189;-69
2023/02/19 05:33:14;;;;;;;2.07;1.87;;;3.50;99.90;;;;;;5025702;28;20422;-68
2023/02/19 05:35:48;;;;;;;2.50;2.30;;;3.50;99.90;;;;;;5023948;28;20466;-68
2023/02/19 05:38:14;;;;;;;8.40;3.10;;;3.50;99.90;;;;;;5025491;28;20545;-68
2023/02/19 05:40:40;;;;;;;8.70;3.67;;;3.60;99.90;;;;;;5024861;28;20756;-68
2023/02/19 05:43:06;;;;;;;8.30;2.83;;;3.50;99.90;;;;;;5020203;28;20415;-68
2023/02/19 05:45:33;;;;;;;4.53;2.33;;;3.70;99.90;;;;;;5019998;28;20419;-67
2023/02/19 05:47:59;;;;;;;6.13;3.07;;;3.60;99.90;;;;;;5017441;28;20447;-68
2023/02/19 05:50:24;;;;;;;4.47;2.67;;;3.60;99.90;;;;;;5021659;28;20433;-69
2023/02/19 05:52:50;;;;;;;3.00;2.30;;;3.60;99.90;;;;;;5024454;28;20889;-67
2023/02/19 05:55:16;;;;;;;3.00;2.43;;;3.50;99.90;;;;;;5019338;28;20678;-68
2023/02/19 05:57:44;;;;;;;2.90;2.20;;;3.40;99.90;;;;;;5021492;28;20199;-69
2023/02/19 06:00:12;;;;;;;4.17;2.33;;;3.40;99.90;;;;;;5039299;22;20176;-69
2023/02/19 06:02:37;;;;;;;7.33;2.27;;;3.30;99.90;;;;;;5033332;28;20426;-68
2023/02/19 06:05:03;;;;;;;6.83;2.27;;;3.40;99.90;;;;;;5043441;28;20938;-68
2023/02/19 06:07:30;;;;;;;7.17;2.70;;;3.40;99.90;;;;;;5051419;28;20425;-68
2023/02/19 06:09:56;;;;;;;2.97;2.13;;;3.40;99.90;;;;;;5037093;28;20769;-68
2023/02/19 06:12:21;;;;;;;3.83;1.83;;;3.40;99.90;;;;;;5046071;28;20417;-68
2023/02/19 06:14:47;;;;;;;9.00;1.60;;;3.40;99.90;;;;;;5040849;28;20299;-69
2023/02/19 06:17:13;;;;;;;2.17;1.97;;;3.50;99.90;;;;;;5044680;28;20174;-69
2023/02/19 06:19:38;;;;;;;4.43;2.60;;;3.60;99.90;;;;;;5043602;28;20229;-69
2023/02/19 06:22:04;;;;;;;2.30;2.10;;;3.60;99.90;;;;;;5041087;28;20638;-69
2023/02/19 06:24:30;;;;;;;9.83;3.00;;;3.70;99.90;;;;;;5043587;28;20171;-69
2023/02/19 06:26:55;;;;;;;2.03;1.40;;;3.60;99.90;;;;;;5014915;28;20259;-68
2023/02/19 06:29:21;;;;;;;4.33;2.20;;;3.70;99.90;;;;;;5046153;28;20232;-69
2023/02/19 06:31:46;;;;;;;4.43;1.93;;;3.70;99.90;;;;;;5041277;28;20195;-70
2023/02/19 06:34:12;;;;;;;5.43;2.90;;;3.60;99.90;;;;;;5045419;28;20198;-69
2023/02/19 06:36:37;;;;;;;6.63;2.50;;;3.50;99.90;;;;;;5039840;28;20298;-70
2023/02/19 06:39:04;;;;;;;2.67;2.37;;;3.40;99.90;;;;;;5034571;28;20545;-69
2023/02/19 06:41:30;;;;;;;4.43;2.10;;;3.60;99.90;;;;;;5033406;28;20565;-69
2023/02/19 06:43:57;;;;;;;5.23;2.53;;;3.50;99.90;;;;;;5043776;28;20409;-69
2023/02/19 06:46:23;;;;;;;6.60;3.00;;;3.90;99.90;;;;;;5043770;28;20454;-69
2023/02/19 06:48:49;;;;;;;2.27;1.93;;;3.90;99.90;;;;;;5040250;28;20468;-69
2023/02/19 06:51:22;;;;;;;2.30;2.10;;;3.60;99.90;;;;;;5041399;28;20448;-71
2023/02/19 06:53:48;;;;;;;3.00;2.47;;;3.70;99.90;;;;;;5038958;28;20672;-68
2023/02/19 06:56:33;;;;;;;2.13;1.93;;;3.80;99.90;;;;;;5042484;28;20528;-70
2023/02/19 06:59:01;;;;;;;4.30;1.90;;;3.70;99.90;;;;;;5041700;28;20175;-69
2023/02/19 07:01:29;;;;;;;3.97;1.97;;;3.40;99.90;;;;;;5040052;28;20745;-70
2023/02/19 07:03:54;;;;;;;7.27;2.47;;;3.50;99.90;;;;;;5041832;28;20544;-69
2023/02/19 07:06:22;;;;;;;5.70;2.80;;;3.60;99.90;;;;;;5043413;28;20453;-69
2023/02/19 07:08:48;;;;;;;7.80;2.17;;;3.40;99.90;;;;;;5035587;28;20190;-68
2023/02/19 07:11:14;;;;;;;2.97;2.03;;;3.30;99.90;;;;;;5045259;28;21007;-69
2023/02/19 07:13:40;;;;;;;1.97;1.73;;;3.40;99.90;;;;;;5017084;28;20453;-68
2023/02/19 07:16:08;;;;;;;3.27;1.73;;;3.40;99.90;;;;;;5019094;28;20441;-69
2023/02/19 07:18:34;;;;;;;4.00;1.70;;;3.40;99.90;;;;;;5041780;28;20232;-69
2023/02/19 07:21:09;;;;;;;5.80;2.60;;;3.40;99.90;;;;;;5021299;28;20789;-68
2023/02/19 07:23:35;;;;;;;2.93;2.27;;;3.50;99.90;;;;;;5044487;28;20405;-68
2023/02/19 07:26:01;;;;;;;4.90;1.93;;;3.50;99.90;;;;;;5019490;28;20411;-69
2023/02/19 07:28:27;;;;;;;2.27;2.07;;;3.50;99.90;;;;;;5043163;28;20331;-68
2023/02/19 07:30:53;;;;;;;5.33;2.87;;;3.60;99.90;;;;;;5035281;28;20274;-69
2023/02/19 07:33:19;;;;;;;3.03;2.73;;;3.60;99.90;;;;;;5039665;28;20198;-69
2023/02/19 07:35:49;;;;;;;2.17;1.93;;;3.50;99.90;;;;;;5044600;28;20477;-69
2023/02/19 07:38:20;;;;;;;2.60;1.90;;;3.50;99.90;;;;;;5031598;28;20406;-69
2023/02/19 07:41:04;;;;;;;4.93;2.00;;;3.50;99.90;;;;;;5045513;28;20529;-71
2023/02/19 07:43:33;;;;;;;2.80;2.13;;;3.60;99.90;;;;;;5035902;28;20400;-69
2023/02/19 07:46:05;;;;;;;2.07;1.53;;;3.60;99.90;;;;;;5043602;28;20413;-69
2023/02/19 07:48:32;;;;;;;3.80;2.23;;;3.70;99.90;;;;;;5030128;28;20907;-69
2023/02/19 07:51:00;;;;;;;3.53;2.30;;;3.70;99.90;;;;;;5041904;28;20524;-69
2023/02/19 07:53:26;;;;;;;4.50;2.50;;;3.70;99.90;;;;;;5039456;28;20842;-69
2023/02/19 07:55:53;;;;;;;6.80;2.70;;;3.80;99.90;;;;;;5038208;28;20907;-69
2023/02/19 07:58:18;;;;;;;1.70;1.60;;;3.90;99.90;;;;;;5035341;28;20776;-69
2023/02/19 08:00:44;;;;;;;3.03;2.00;;;4.10;99.90;;;;;;5028305;28;20500;-69
2023/02/19 08:03:10;;;;;;;4.30;1.77;;;4.00;99.90;;;;;;5033260;28;20172;-68
2023/02/19 08:05:38;;;;;;;2.80;1.70;;;3.90;99.90;;;;;;5039327;28;20766;-70
2023/02/19 08:08:13;;;;;;;3.57;1.70;;;4.10;99.90;;;;;;5041781;28;20872;-69
2023/02/19 08:13:24;;;;;;;2.33;1.43;;;4.50;99.90;;;;;;5041808;28;20931;-69
2023/02/19 08:15:52;;;;;;;6.30;2.60;;;4.60;99.90;;;;;;5043228;28;20449;-69
2023/02/19 08:18:21;;;;;;;4.47;2.47;;;4.90;99.90;;;;;;5043023;28;20540;-69
2023/02/19 08:20:47;;;;;;;6.53;2.63;;;4.90;99.90;;;;;;5038665;28;20491;-69
2023/02/19 08:23:13;;;;;;;4.70;1.40;;;5.20;99.90;;;;;;5036304;28;20397;-69
2023/02/19 08:25:40;;;;;;;4.60;2.00;;;5.30;99.90;;;;;;5039829;28;20636;-69
2023/02/19 08:28:07;;;;;;;2.03;1.70;;;5.90;99.90;;;;;;5036660;28;20420;-69
2023/02/19 08:30:34;;;;;;;2.27;1.50;;;6.00;99.90;;;;;;5042480;28;20808;-69
2023/02/19 08:33:00;;;;;;;3.53;1.90;;;6.20;99.90;;;;;;5031670;28;20442;-69
2023/02/19 08:35:27;;;;;;;1.50;1.40;;;6.50;99.90;;;;;;5042695;28;20971;-68
2023/02/19 08:37:57;;;;;;;1.33;1.23;;;6.50;99.90;;;;;;5037524;28;20421;-69
2023/02/19 08:40:24;;;;;;;2.00;1.70;;;6.60;99.90;;;;;;5043465;28;20406;-72
2023/02/19 08:42:49;;;;;;;13.13;7.60;;;7.20;99.90;;;;;;5036445;28;20414;-74
2023/02/19 08:45:15;;;;;;;2.37;2.17;;;7.20;99.90;;;;;;5038039;28;20413;-70
2023/02/19 08:47:41;;;;;;;12.70;7.67;;;8.50;99.90;;;;;;5035681;28;20183;-70
2023/02/19 08:50:07;;;;;;;15.30;9.07;;;8.10;99.90;;;;;;5037541;28;20697;-73
2023/02/19 08:52:33;;;;;;;7.10;2.50;;;8.40;99.90;;;;;;5029913;28;20195;-68
2023/02/19 08:54:59;;;;;;;8.30;2.53;;;8.30;99.90;;;;;;5019305;28;20472;-69
2023/02/19 08:57:25;;;;;;;8.13;5.57;;;7.20;99.90;;;;;;5038295;28;20182;-69
2023/02/19 08:59:50;;;;;;;11.27;6.73;;;6.70;99.90;;;;;;5041394;28;20218;-68
2023/02/19 09:02:16;;;;;;;4.30;2.27;;;7.40;99.90;;;;;;5047154;28;20922;-71
2023/02/19 09:04:42;;;;;;;3.30;2.27;;;7.20;99.90;;;;;;5042815;28;20181;-69
2023/02/19 09:07:09;;;;;;;4.60;3.87;;;7.00;99.90;;;;;;5035810;28;20188;-69
2023/02/19 09:09:39;;;;;;;5.00;3.47;;;6.70;99.90;;;;;;5038941;28;20168;-69
2023/02/19 09:12:06;;;;;;;2.37;2.07;;;6.60;99.90;;;;;;5042943;28;21119;-70
2023/02/19 09:14:33;;;;;;;1.20;1.10;;;6.60;99.90;;;;;;5037973;28;20580;-70
2023/02/19 09:16:59;;;;;;;4.20;1.77;;;6.20;99.90;;;;;;5040964;28;20421;-69
2023/02/19 09:19:25;;;;;;;3.60;1.67;;;6.30;99.90;;;;;;5040976;28;20589;-69
2023/02/19 09:21:51;;;;;;;3.60;1.40;;;6.00;99.90;;;;;;5040843;28;20488;-69
2023/02/19 09:24:16;;;;;;;4.07;1.20;;;6.20;99.90;;;;;;5022982;28;20932;-70
2023/02/19 09:26:42;;;;;;;2.77;1.37;;;6.30;99.90;;;;;;5040831;28;20231;-70
2023/02/19 09:29:08;;;;;;;4.50;1.63;;;6.10;99.90;;;;;;5041012;28;20537;-69
2023/02/19 09:31:33;;;;;;;3.23;1.43;;;6.10;99.90;;;;;;5029889;28;20267;-70
2023/02/19 09:34:00;;;;;;;4.27;2.03;;;6.00;99.90;;;;;;5048194;28;20276;-69
2023/02/19 09:36:25;;;;;;;6.27;1.83;;;5.90;99.90;;;;;;5035812;28;20403;-69
2023/02/19 09:38:51;;;;;;;3.97;1.40;;;6.20;99.90;;;;;;5036318;28;20482;-69
2023/02/19 09:41:27;;;;;;;8.47;1.90;;;6.00;99.90;;;;;;5043714;28;20241;-69
2023/02/19 09:43:52;;;;;;;3.40;1.20;;;5.90;99.90;;;;;;5043989;28;20167;-69
2023/02/19 09:46:26;;;;;;;2.77;1.63;;;6.10;99.90;;;;;;5043302;28;20429;-69
2023/02/19 09:48:56;;;;;;;4.20;2.13;;;6.40;99.90;;;;;;5044140;28;20171;-68
2023/02/19 09:51:24;;;;;;;5.27;1.30;;;6.50;99.90;;;;;;5040387;28;20481;-69
2023/02/19 09:53:51;;;;;;;4.60;1.20;;;6.40;99.90;;;;;;5042868;28;20460;-71
2023/02/19 09:56:17;;;;;;;4.23;1.50;;;6.30;99.90;;;;;;5043614;28;20425;-68
2023/02/19 09:58:55;;;;;;;2.60;1.60;;;6.50;99.90;;;;;;5042148;28;20402;-70
2023/02/19 10:01:25;;;;;;;5.50;3.43;;;6.60;99.90;;;;;;5018164;28;20809;-69
2023/02/19 10:03:51;;;;;;;5.10;2.00;;;6.60;99.90;;;;;;5039575;28;20592;-69
2023/02/19 10:06:22;;;;;;;4.73;2.30;;;6.40;99.90;;;;;;5037653;28;20880;-68
2023/02/19 10:09:08;;;;;;;5.53;3.57;;;6.30;99.90;;;;;;5038578;28;20207;-68
2023/02/19 10:11:34;;;;;;;3.97;1.93;;;6.50;99.90;;;;;;5029250;28;20434;-69
2023/02/19 10:14:20;;;;;;;2.50;1.63;;;6.60;99.90;;;;;;5039587;28;21032;-70
2023/02/19 10:16:47;;;;;;;2.20;1.50;;;6.40;99.90;;;;;;5021988;28;20179;-70
2023/02/19 10:19:14;;;;;;;4.90;1.87;;;6.40;99.90;;;;;;5034953;28;20491;-70
2023/02/19 10:21:41;;;;;;;6.93;1.37;;;6.50;99.90;;;;;;5039938;28;20434;-70
2023/02/19 10:24:09;;;;;;;3.23;1.33;;;6.70;99.90;;;;;;5005323;28;20414;-68
2023/02/19 10:26:35;;;;;;;5.70;2.60;;;6.80;99.90;;;;;;5040851;28;20491;-70
2023/02/19 10:29:02;;;;;;;3.40;1.60;;;6.90;99.90;;;;;;5042698;28;20441;-70
2023/02/19 10:31:31;;;;;;;2.13;1.60;;;6.80;99.90;;;;;;5036219;28;20443;-70
2023/02/19 10:34:01;;;;;;;3.47;1.60;;;6.40;99.90;;;;;;5046989;28;20492;-70
2023/02/19 10:36:40;;;;;;;1.53;1.13;;;6.80;99.90;;;;;;5035597;28;20505;-70
2023/02/19 10:39:29;;;;;;;4.67;1.50;;;6.80;99.90;;;;;;5022947;28;20791;-70
2023/02/19 10:41:54;;;;;;;2.27;1.83;;;6.60;99.90;;;;;;5031119;28;20433;-70
2023/02/19 10:44:26;;;;;;;3.57;1.60;;;6.60;99.90;;;;;;5036157;28;20405;-70
2023/02/19 10:46:55;;;;;;;2.57;1.33;;;6.90;99.90;;;;;;5042786;28;20259;-69
2023/02/19 10:49:28;;;;;;;2.10;1.50;;;6.70;99.90;;;;;;5042518;28;20402;-69
2023/02/19 10:51:57;;;;;;;5.27;1.90;;;6.60;99.90;;;;;;5032508;28;20429;-71
2023/02/19 10:54:31;;;;;;;4.70;1.27;;;6.80;99.90;;;;;;5042422;28;20453;-70
2023/02/19 10:57:24;;;;;;;3.07;1.33;;;6.60;99.90;;;;;;5023337;28;20515;-70
2023/02/19 10:59:57;;;;;;;2.40;1.47;;;6.60;99.90;;;;;;5035894;28;20394;-70
2023/02/19 11:02:24;;;;;;;2.70;1.27;;;6.60;99.90;;;;;;5046611;28;20441;-70
2023/02/19 11:05:07;;;;;;;3.00;1.47;;;6.40;99.90;;;;;;5036869;28;20502;-70
2023/02/19 11:07:36;;;;;;;1.00;0.90;;;6.50;99.90;;;;;;5032755;28;20438;-70
2023/02/19 11:10:04;;;;;;;2.77;1.10;;;6.60;99.90;;;;;;5043557;28;20823;-70
2023/02/19 11:12:32;;;;;;;3.20;1.27;;;6.40;99.90;;;;;;5039274;28;20418;-69
2023/02/19 11:15:21;;;;;;;0.90;0.90;;;6.40;99.90;;;;;;5043487;28;20453;-69
2023/02/19 11:17:55;;;;;;;1.43;1.00;;;6.40;99.90;;;;;;5042758;28;20774;-70
2023/02/19 11:20:21;;;;;;;4.63;2.00;;;6.50;99.90;;;;;;5041511;28;20447;-70
2023/02/19 11:22:48;;;;;;;6.63;2.27;;;6.40;99.90;;;;;;5039650;28;20939;-70
2023/02/19 11:25:13;;;;;;;5.90;1.57;;;6.40;99.90;;;;;;5037687;28;20174;-71
2023/02/19 11:28:05;;;;;;;2.67;1.33;;;6.60;99.90;;;;;;5040822;28;20919;-69
2023/02/19 11:30:42;;;;;;;2.27;1.10;;;6.50;99.90;;;;;;5041300;28;20206;-69
2023/02/19 11:33:20;;;;;;;5.23;1.00;;;6.80;99.90;;;;;;5043545;28;20417;-69
2023/02/19 11:35:48;;;;;;;3.53;1.10;;;6.90;99.90;;;;;;5036453;28;20951;-69
2023/02/19 11:38:16;;;;;;;4.20;1.30;;;7.10;99.90;;;;;;5038820;28;20421;-69
2023/02/19 11:40:47;;;;;;;2.20;1.50;;;7.20;99.90;;;;;;5026923;28;20516;-69
2023/02/19 11:43:42;;;;;;;3.30;1.40;;;7.20;99.90;;;;;;5033727;28;20491;-69
2023/02/19 11:46:27;;;;;;;2.10;1.23;;;7.20;99.90;;;;;;5028974;28;20455;-68
2023/02/19 11:49:13;;;;;;;2.00;0.90;;;7.50;99.90;;;;;;5027746;28;20452;-69
2023/02/19 11:51:51;;;;;;;4.77;1.50;;;7.20;99.90;;;;;;5038692;28;20424;-70
2023/02/19 11:54:43;;;;;;;5.57;1.20;;;7.30;99.90;;;;;;5041349;28;20448;-70
2023/02/19 11:57:25;;;;;;;1.80;1.27;;;6.90;99.90;;;;;;5036084;28;20488;-70
2023/02/19 12:00:20;;;;;;;6.83;1.00;;;6.90;99.90;;;;;;5020372;28;20774;-70
2023/02/19 12:03:05;;;;;;;2.17;1.30;;;7.20;99.90;;;;;;5042151;23;20550;-75
2023/02/19 12:05:32;;;;;;;1.83;1.50;;;7.40;99.90;;;;;;5029397;28;20986;-75
2023/02/19 12:08:32;;;;;;;2.57;1.00;;;7.60;99.90;;;;;;5032119;28;20442;-76
2023/02/19 12:11:10;;;;;;;2.90;1.50;;;7.50;99.90;;;;;;5025895;28;20740;-77
2023/02/19 12:13:41;;;;;;;1.33;1.23;;;7.70;99.90;;;;;;5025660;28;20908;-72
2023/02/19 12:16:25;;;;;;;3.70;1.33;;;7.60;99.90;;;;;;5020948;28;20534;-76
2023/02/19 12:19:03;;;;;;;1.33;1.00;;;7.60;99.90;;;;;;5021408;28;20398;-76
2023/02/19 12:21:41;;;;;;;7.10;1.20;;;7.50;99.90;;;;;;5000294;28;20437;-74
2023/02/19 12:24:32;;;;;;;2.10;1.27;;;7.40;99.90;;;;;;5024445;28;20407;-75
2023/02/19 12:27:04;;;;;;;2.17;1.20;;;7.50;99.90;;;;;;5003434;28;20405;-69
2023/02/19 12:29:49;;;;;;;3.07;1.30;;;7.70;99.90;;;;;;5020921;28;20550;-76
2023/02/19 12:32:26;;;;;;;5.83;2.60;;;7.90;99.90;;;;;;5022015;28;20431;-74
2023/02/19 12:35:03;;;;;;;4.33;1.53;;;8.10;99.90;;;;;;5019261;28;20977;-73
2023/02/19 12:37:56;;;;;;;2.50;1.27;;;7.90;99.90;;;;;;5018874;28;20413;-74
2023/02/19 12:40:36;;;;;;;9.10;1.60;;;8.10;99.90;;;;;;5016543;28;20412;-74
2023/02/19 12:43:10;;;;;;;3.70;1.70;;;7.80;99.90;;;;;;5012131;28;20975;-73
2023/02/19 12:46:00;;;;;;;5.77;1.20;;;7.80;99.90;;;;;;5017180;28;20414;-73
2023/02/19 12:48:37;;;;;;;4.63;1.93;;;7.80;99.90;;;;;;5019012;28;20779;-73
2023/02/19 12:51:24;;;;;;;5.23;1.27;;;7.50;99.90;;;;;;5015614;28;20463;-72
2023/02/19 12:54:05;;;;;;;1.27;1.10;;;7.50;99.90;;;;;;5012215;28;20543;-73
2023/02/19 12:57:05;;;;;;;1.90;1.10;;;7.60;99.90;;;;;;4998316;28;20452;-72
2023/02/19 12:59:34;;;;;;;2.27;1.10;;;7.70;99.90;;;;;;5001516;28;20801;-73
2023/02/19 13:02:05;;;;;;;3.50;1.47;;;7.50;99.90;;;;;;5016261;28;20502;-73
2023/02/19 13:04:44;;;;;;;1.20;0.90;;;7.50;99.90;;;;;;5012717;28;20926;-74
2023/02/19 13:07:16;;;;;;;4.80;1.23;;;7.60;99.90;;;;;;5017890;28;20415;-76
2023/02/19 13:09:50;;;;;;;3.57;1.50;;;7.60;99.90;;;;;;5013710;28;20412;-73
2023/02/19 13:12:28;;;;;;;2.10;1.00;;;7.70;99.90;;;;;;5014121;28;20423;-73
2023/02/19 13:14:59;;;;;;;5.07;1.73;;;8.00;99.90;;;;;;5011628;28;20447;-72
2023/02/19 13:17:43;;;;;;;3.37;1.30;;;8.10;99.90;;;;;;5015052;28;20471;-73
2023/02/19 13:20:27;;;;;;;3.90;1.40;;;8.40;99.90;;;;;;5011237;28;20433;-73
2023/02/19 13:26:03;;;;;;;0.90;0.90;;;7.40;99.90;;;;;;5020119;28;20410;-76
2023/02/19 13:28:58;;;;;;;1.20;1.10;;;7.30;99.90;;;;;;5024884;28;20924;-76
2023/02/19 13:31:23;;;;;;;3.93;1.10;;;7.20;99.90;;;;;;5015890;28;20535;-76
2023/02/19 13:34:21;;;;;;;5.77;1.20;;;7.20;99.90;;;;;;5020231;28;20893;-76
2023/02/19 13:36:48;;;;;;;1.00;0.90;;;7.10;99.90;;;;;;5018657;28;20216;-75
2023/02/19 13:39:15;;;;;;;2.23;1.30;;;7.10;99.90;;;;;;5019677;28;20414;-76
2023/02/19 13:41:53;;;;;;;1.17;1.07;;;7.10;99.90;;;;;;5019325;28;20403;-75